Latest Coastal Weather Observations for Double Island Point

IDQ60701

Issued at 7:15 pm EST Tuesday 22 July 2014 (issued every 10 minutes, with the page automatically refreshed every 10 minutes)

About coastal observations | Map of coastal stations | Coastal observations for QLD | Marine services | Other Formats
Station Details ID: 040068 Name: DOUBLE ISLAND POINT LIGHTHOUSE Lat: -25.93 Lon: 153.19 Height: 95.64 m
Data from the previous 72 hours. | See also: Recent months at Double Island Point
Date/Time
EST
Temp

°C
Wind Pressure Rain
since 9am
mm
Weather Cloud Vis
km
Sea
Height
m
Swell
Dir
 
Speed
knots
Gust
knots
hPa Trend Height
m
Period
s
Dir
22/07:00pm 18.0 SE 15 17 1019.9 - 0.0 - - - - - - -
22/06:30pm 17.8 ESE 14 18 1019.6 - 0.0 - - - - - - -
22/06:00pm 17.7 SE 13 17 1019.2 - 0.0 - - - - - - -
22/05:30pm 17.6 SE 13 15 1018.9 - 0.0 - - - - - - -
22/05:00pm 17.3 SE 12 16 1018.5 - 0.0 - - - - - - -
22/04:30pm 17.5 S 14 21 1018.8 - 0.0 - - - - - - -
22/04:00pm 18.0 SSE 18 22 1018.3 - 0.0 - - - - - - -
22/03:30pm 17.8 SSE 15 19 1018.7 - 0.0 - - - - - - -
22/03:00pm 17.6 SSE 17 19 1018.2 - 0.0 - - - - - - -
22/02:30pm 18.1 SE 14 17 1018.2 - 0.0 - - - - - - -
22/02:00pm 18.6 SSE 13 16 1018.4 - 0.0 - - - - - - -
22/01:30pm 18.5 SSE 15 17 1018.8 - 0.0 - - - - - - -
22/01:00pm 18.5 SSE 14 17 1019.0 - 0.0 - - - - - - -
22/12:30pm 18.2 S 14 16 1019.6 - 0.0 - - - - - - -
22/12:00pm 18.0 S 15 19 1020.0 - 0.0 - - - - - - -
22/11:30am 18.2 S 16 19 1020.5 - 0.0 - - - - - - -
22/11:00am 17.8 S 17 21 1020.7 - 0.0 - - - - - - -
22/10:30am 17.8 S 18 23 1021.1 - 0.0 - - - - - - -
22/10:00am 17.2 S 17 22 1021.2 - 0.0 - - - - - - -
22/09:30am 16.4 S 19 22 1021.3 - 0.0 - - - - - - -
22/09:00am 16.2 S 17 21 1021.2 - 0.0 - - - - - - -
22/08:30am 16.4 S 17 21 1021.1 - 0.0 - - - - - - -
22/08:00am 16.3 S 17 21 1020.9 - 0.0 - - - - - - -
22/07:30am 16.2 S 17 21 1020.8 - 0.0 - - - - - - -
22/07:00am 16.0 S 17 21 1020.4 - 0.0 - - - - - - -
22/06:30am 15.5 S 17 25 1020.3 - 0.0 - - - - - - -
22/06:00am 16.0 S 19 23 1019.9 - 0.0 - - - - - - -
22/05:30am 16.2 S 18 22 1019.7 - 0.0 - - - - - - -
22/05:00am 16.4 S 18 22 1019.3 - 0.0 - - - - - - -
22/04:30am 16.4 S 14 20 1019.4 - 0.0 - - - - - - -
22/04:00am 16.4 S 14 18 1019.4 - 0.0 - - - - - - -
22/03:30am 16.4 S 15 18 1019.6 - 0.0 - - - - - - -
22/03:00am 16.8 S 12 15 1019.7 - 0.0 - - - - - - -
22/02:30am 17.6 SE 14 17 1019.9 - 0.0 - - - - - - -
22/02:00am 17.7 SE 13 16 1020.0 - 0.0 - - - - - - -
22/01:30am 17.7 SE 13 16 1020.4 - 0.0 - - - - - - -
22/01:00am 18.0 SE 13 16 1020.4 - 0.0 - - - - - - -
22/12:30am 17.9 SE 14 17 1020.7 - 0.0 - - - - - - -
22/12:00am 18.1 SE 15 17 1020.6 - 0.0 - - - - - - -
 
Date/Time
EST
Temp

°C
Wind Pressure Rain
since 9am
mm
Weather Cloud Vis
km
Sea
Height
m
Swell
Dir
 
Speed
knots
Gust
knots
hPa Trend Height
m
Period
s
Dir
21/11:30pm 18.1 SE 16 19 1020.9 - 0.0 - - - - - - -
21/11:00pm 17.9 SE 15 19 1021.1 - 0.0 - - - - - - -
21/10:30pm 18.0 ESE 16 19 1021.3 - 0.0 - - - - - - -
21/10:00pm 18.1 ESE 16 18 1021.3 - 0.0 - - - - - - -
21/09:30pm 17.9 ESE 16 22 1021.4 - 0.0 - - - - - - -
21/09:00pm 17.9 ESE 17 20 1021.1 - 0.0 - - - - - - -
21/08:30pm 18.0 ESE 18 21 1021.2 - 0.0 - - - - - - -
21/08:00pm 18.0 SE 19 21 1021.0 - 0.0 - - - - - - -
21/07:30pm 18.0 SE 19 23 1021.0 - 0.0 - - - - - - -
21/07:00pm 17.8 SSE 21 25 1020.6 - 0.0 - - - - - - -
21/06:30pm 17.6 SSE 21 26 1020.3 - 0.0 - - - - - - -
21/06:00pm 17.6 SSE 22 26 1020.1 - 0.0 - - - - - - -
21/05:30pm 17.6 SSE 21 24 1019.9 - 0.0 - - - - - - -
21/05:00pm 17.6 SSE 19 25 1019.8 - 0.0 - - - - - - -
21/04:30pm 17.7 SSE 21 25 1019.6 - 0.0 - - - - - - -
21/04:00pm 17.9 SSE 19 23 1019.3 - 0.0 - - - - - - -
21/03:30pm 18.3 SSE 20 26 1019.4 - 0.0 - - - - - - -
21/03:00pm 17.9 SSE 20 24 1019.2 - 0.0 - - - - - - -
21/02:30pm 18.0 SSE 20 25 1019.2 - 0.0 - - - - - - -
21/02:00pm 18.1 SSE 21 25 1018.9 - 0.0 - - - - - - -
21/01:30pm 18.1 SSE 21 25 1019.1 - 0.0 - - - - - - -
21/01:00pm 18.4 SSE 21 26 1019.0 - 0.0 - - - - - - -
21/12:30pm 18.3 SSE 21 26 1019.6 - 0.0 - - - - - - -
21/12:00pm 18.0 SSE 21 26 1020.2 - 0.0 - - - - - - -
21/11:30am 17.9 SSE 21 27 1020.7 - 0.0 - - - - - - -
21/11:00am 17.7 S 22 27 1020.9 - 0.0 - - - - - - -
21/10:30am 17.5 S 22 26 1021.2 - 0.0 - - - - - - -
21/10:00am 17.2 S 23 28 1021.2 - 0.0 - - - - - - -
21/09:30am 17.0 S 23 29 1021.4 - 0.0 - - - - - - -
21/09:00am 16.7 S 21 27 1021.4 - 0.0 - - - - - - -
21/08:30am 16.3 S 22 26 1021.4 - 0.0 - - - - - - -
21/08:00am 15.8 S 23 27 1021.2 - 0.0 - - - - - - -
21/07:30am 15.4 S 22 28 1021.1 - 0.0 - - - - - - -
21/07:00am 15.4 S 22 26 1020.8 - 0.0 - - - - - - -
21/06:30am 15.4 S 24 28 1020.4 - 0.0 - - - - - - -
21/06:00am 15.6 S 22 30 1020.1 - 0.0 - - - - - - -
21/05:30am 15.6 S 22 26 1019.9 - 0.0 - - - - - - -
21/05:00am 15.5 S 16 21 1019.6 - 0.0 - - - - - - -
21/04:30am 15.1 S 17 21 1019.4 - 0.0 - - - - - - -
21/04:00am 15.4 S 18 23 1019.4 - 0.0 - - - - - - -
21/03:30am 15.9 S 17 24 1019.7 - 0.0 - - - - - - -
21/03:00am 15.9 S 16 20 1019.7 - 0.0 - - - - - - -
21/02:30am 16.0 SSW 14 17 1020.1 - 0.0 - - - - - - -
21/02:00am 16.5 SSE 19 23 1020.0 - 0.0 - - - - - - -
21/01:30am 16.5 SSE 24 31 1019.9 - 0.0 - - - - - - -
21/01:00am 17.2 SSE 19 27 1020.1 - 0.0 - - - - - - -
21/12:30am 17.2 S 16 21 1020.5 - 0.0 - - - - - - -
21/12:00am 17.0 S 14 19 1020.4 - 0.0 - - - - - - -
 
Date/Time
EST
Temp

°C
Wind Pressure Rain
since 9am
mm
Weather Cloud Vis
km
Sea
Height
m
Swell
Dir
 
Speed
knots
Gust
knots
hPa Trend Height
m
Period
s
Dir
20/11:30pm 16.6 S 12 15 1020.7 - 0.0 - - - - - - -
20/11:00pm 16.1 S 11 14 1020.7 - 0.0 - - - - - - -
20/10:30pm 16.1 S 10 13 1020.9 - 0.0 - - - - - - -
20/10:00pm 16.1 S 10 12 1021.1 - 0.0 - - - - - - -
20/09:30pm 16.4 S 9 10 1021.2 - 0.0 - - - - - - -
20/09:00pm 16.4 S 9 10 1021.0 - 0.0 - - - - - - -
20/08:30pm 16.6 S 8 9 1021.1 - 0.0 - - - - - - -
20/08:00pm 16.8 S 7 9 1021.1 - 0.0 - - - - - - -
20/07:30pm 17.2 SSE 9 10 1021.0 - 0.0 - - - - - - -
20/07:00pm 17.6 SSE 12 15 1020.6 - 0.0 - - - - - - -
20/06:30pm 17.5 SSE 11 14 1020.2 - 0.0 - - - - - - -
20/06:00pm 17.2 SSE 15 19 1019.7 - 0.0 - - - - - - -
20/05:30pm 17.1 SSE 16 18 1019.6 - 0.0 - - - - - - -
20/05:00pm 17.1 SSE 16 19 1019.2 - 0.0 - - - - - - -
20/04:30pm 17.2 SSE 16 19 1019.1 - 0.0 - - - - - - -
20/04:00pm 17.1 SSE 17 20 1018.8 - 0.0 - - - - - - -
20/03:30pm 17.0 SSE 14 17 1018.7 - 0.0 - - - - - - -
20/03:00pm 17.0 SSE 16 19 1018.6 - 0.0 - - - - - - -
20/02:30pm 17.5 SSE 15 18 1019.0 - 0.0 - - - - - - -
20/02:00pm 16.9 SSE 16 20 1018.8 - 0.0 - - - - - - -
20/01:30pm 17.1 SSE 16 21 1019.4 - 0.0 - - - - - - -
20/01:00pm 16.7 S 19 23 1019.3 - 0.0 - - - - - - -
20/12:30pm 16.8 SSE 16 22 1019.7 - 0.0 - - - - - - -
20/12:00pm 16.6 S 17 23 1019.8 - 0.0 - - - - - - -
20/11:30am 16.5 SSE 19 24 1020.0 - 0.0 - - - - - - -
20/11:00am 16.2 S 17 22 1020.2 - 0.0 - - - - - - -
20/10:30am 15.8 S 17 22 1020.7 - 0.0 - - - - - - -
20/10:00am 15.6 S 16 21 1020.7 - 0.0 - - - - - - -
20/09:30am 15.3 S 19 23 1020.8 - 0.0 - - - - - - -
20/09:00am 15.1 S 20 25 1020.6 - 0.0 - - - - - - -
20/08:30am 15.0 S 22 29 1020.4 - 0.0 - - - - - - -
20/08:00am 15.0 S 21 27 1019.9 - 0.0 - - - - - - -
20/07:30am 14.5 SSW 18 21 1020.0 - 0.0 - - - - - - -
20/07:00am 14.0 S 18 22 1019.4 - 0.0 - - - - - - -
20/06:30am 14.0 SSW 17 22 1019.5 - 0.0 - - - - - - -
20/06:00am 15.2 S 23 29 1018.5 - 0.0 - - - - - - -
20/05:30am 15.3 S 24 32 1018.4 - 0.0 - - - - - - -
20/05:00am 14.9 S 20 28 1018.3 - 0.0 - - - - - - -
20/04:30am 14.8 S 23 29 1018.1 - 0.0 - - - - - - -
20/04:00am 15.0 S 23 29 1017.6 - 0.0 - - - - - - -
20/03:30am 15.1 S 19 26 1018.0 - 0.0 - - - - - - -
20/03:00am 14.4 S 16 21 1017.9 - 0.0 - - - - - - -
20/02:30am 14.0 S 18 22 1018.1 - 0.0 - - - - - - -
20/02:00am 13.8 S 18 22 1017.9 - 0.0 - - - - - - -
20/01:30am 12.9 S 14 19 1018.5 - 0.0 - - - - - - -
20/01:00am 13.2 SSW 16 19 1018.6 - 0.0 - - - - - - -
20/12:30am 13.4 SSW 16 20 1019.0 - 0.0 - - - - - - -
20/12:00am 13.4 SSW 17 23 1019.0 - 0.0 - - - - - - -
 
Date/Time
EST
Temp

°C
Wind Pressure Rain
since 9am
mm
Weather Cloud Vis
km
Sea
Height
m
Swell
Dir
 
Speed
knots
Gust
knots
hPa Trend Height
m
Period
s
Dir
19/11:30pm 13.6 SSW 17 22 1019.4 - 0.0 - - - - - - -
19/11:00pm 13.1 SW 15 20 1019.5 - 0.0 - - - - - - -
19/10:30pm 13.8 SSW 16 21 1019.6 - 0.0 - - - - - - -
19/10:00pm 13.4 SW 17 22 1019.4 - 0.0 - - - - - - -
19/09:30pm 13.8 SW 15 19 1019.4 - 0.0 - - - - - - -
19/09:00pm 14.2 SW 18 23 1019.4 - 0.0 - - - - - - -
19/08:30pm 14.0 SW 13 19 1019.5 - 0.0 - - - - - - -
19/08:00pm 14.3 SW 12 17 1019.3 - 0.0 - - - - - - -
19/07:30pm 15.3 SSW 17 21 1019.0 - 0.0 - - - - - - -

Other Formats:

Comma delimited format used in spreadsheet applications
http://www.bom.gov.au/fwo/IDQ60701/IDQ60701.94584.axf

JavaScript Object Notation format (JSON) in row-major order
http://www.bom.gov.au/fwo/IDQ60701/IDQ60701.94584.json